Thursday, January 18, 2018, 11:02 PM EST
Back to Local

KDMH, Baltimore Downtown

Location: Baltimore, MD, United States Lat: 39.283
Local Time: 11:02 PM EST ( 4:02 GMT) Lon: -76.617
Time Zone: US/Eastern Elev: 19 ft

Show me the last for .
Show Coded

Time T Td Feel RH Dir Speed Gust Alt SLP Vis Weather Sky Remarks
2018-01-18 21:54 36 10 - 33 - - - 30.11 30.11 0 None
2018-01-18 20:54 37 8 - 29 - - - 30.10 30.10 0 None
2018-01-18 19:54 38 8 - 28 - - - 30.08 30.08 0 None
2018-01-18 18:54 39 8 - 27 - - - 30.07 30.06 0 6-hr Min Temp (7pm): 37.0°F
6-hr Max Temp (7pm): 42.1°F
2018-01-18 17:54 41 7 - 23 - - - 30.04 30.04 0 None
2018-01-18 16:54 42 6 - 22 - - - 30.03 30.03 0 None
2018-01-18 15:54 42 6 - 22 - - - 30.01 30.01 0 None
2018-01-18 14:54 42 5 - 20 - - - 30.01 30.01 0 None
2018-01-18 13:54 41 8 - 25 - - - 30.02 30.02 0 None
2018-01-18 12:54 37 7 - 27 - - - 30.07 30.07 0 6-hr Min Temp (1pm): 19.0°F
6-hr Max Temp (1pm): 37.0°F
2018-01-18 11:54 36 8 - 30 - - - 30.11 30.11 0 None
2018-01-18 10:54 31 7 - 35 - - - 30.13 30.13 0 None
2018-01-18 09:54 27 6 - 40 - - - 30.17 30.16 0 None
2018-01-18 08:54 23 6 - 47 - - - 30.17 30.16 0 None
2018-01-18 07:54 20 7 - 56 - - - 30.17 30.17 0 None
2018-01-18 06:54 19 7 - 58 - - - 30.18 30.18 0 24-hr Precip Total (7am): 0.01"
6-hr Min Temp (7am): 19.0°F
6-hr Max Temp (7am): 21.9°F
2018-01-18 05:54 20 6 - 54 - - - 30.16 30.16 0 None
2018-01-18 04:54 20 7 - 56 - - - 30.15 30.15 0 None
2018-01-18 03:54 21 6 - 51 - - - 30.17 30.16 0 None
2018-01-18 02:54 21 7 - 53 - - - 30.16 30.16 0 Pressure falling rapidly
2018-01-18 01:54 21 7 - 53 - - - 30.22 30.22 0 None
2018-01-18 00:54 21 7 - 53 - - - 30.26 30.26 0 6-hr Min Temp (1am): 21.0°F
6-hr Max Temp (1am): 25.0°F
2018-01-17 23:54 21 7 - 53 - - - 30.28 30.27 0 24-hr Min Temp (12am): 21.0°F
24-hr Max Temp (12am): 37.9°F

Support USWX by starting your Amazon purchase here.